sensor_id;sensor_type;location;lat;lon;timestamp;pressure;altitude;pressure_sealevel;temperature;humidity
2675;BME280;1347;42.122;24.746;2023-08-06T00:00:55;98123.44;;;25.43;100.00
2675;BME280;1347;42.122;24.746;2023-08-06T00:03:22;98120.59;;;25.38;100.00
2675;BME280;1347;42.122;24.746;2023-08-06T00:05:51;98120.09;;;25.34;100.00
2675;BME280;1347;42.122;24.746;2023-08-06T00:08:17;98115.75;;;25.33;100.00
2675;BME280;1347;42.122;24.746;2023-08-06T00:10:44;98103.75;;;25.32;100.00
2675;BME280;1347;42.122;24.746;2023-08-06T00:13:13;98109.91;;;25.42;100.00
2675;BME280;1347;42.122;24.746;2023-08-06T00:15:40;98102.03;;;25.51;100.00
2675;BME280;1347;42.122;24.746;2023-08-06T00:18:07;98108.69;;;25.54;100.00
2675;BME280;1347;42.122;24.746;2023-08-06T00:20:34;98103.59;;;25.58;100.00
2675;BME280;1347;42.122;24.746;2023-08-06T00:23:02;98102.31;;;25.53;100.00
2675;BME280;1347;42.122;24.746;2023-08-06T00:25:29;98103.31;;;25.50;100.00
2675;BME280;1347;42.122;24.746;2023-08-06T00:27:56;98094.63;;;25.48;100.00
2675;BME280;1347;42.122;24.746;2023-08-06T00:30:22;98094.13;;;25.50;100.00
2675;BME280;1347;42.122;24.746;2023-08-06T00:32:49;98111.19;;;25.46;100.00
2675;BME280;1347;42.122;24.746;2023-08-06T00:35:16;98120.66;;;25.43;100.00
2675;BME280;1347;42.122;24.746;2023-08-06T00:37:43;98110.91;;;25.39;100.00
2675;BME280;1347;42.122;24.746;2023-08-06T00:40:11;98102.00;;;25.40;100.00
2675;BME280;1347;42.122;24.746;2023-08-06T00:42:38;98108.34;;;25.29;100.00
2675;BME280;1347;42.122;24.746;2023-08-06T00:45:06;98097.34;;;25.20;100.00
2675;BME280;1347;42.122;24.746;2023-08-06T00:47:33;98098.09;;;25.21;100.00
2675;BME280;1347;42.122;24.746;2023-08-06T00:50:00;98087.88;;;25.12;100.00
2675;BME280;1347;42.122;24.746;2023-08-06T00:52:26;98092.16;;;25.02;100.00
2675;BME280;1347;42.122;24.746;2023-08-06T00:54:53;98091.34;;;24.96;100.00
2675;BME280;1347;42.122;24.746;2023-08-06T00:57:24;98087.94;;;24.86;100.00
2675;BME280;1347;42.122;24.746;2023-08-06T00:59:51;98071.91;;;24.87;100.00
2675;BME280;1347;42.122;24.746;2023-08-06T01:02:18;98065.78;;;24.88;100.00
2675;BME280;1347;42.122;24.746;2023-08-06T01:04:45;98074.94;;;24.83;100.00
2675;BME280;1347;42.122;24.746;2023-08-06T01:07:19;98072.31;;;24.74;100.00
2675;BME280;1347;42.122;24.746;2023-08-06T01:09:58;98064.44;;;24.73;100.00
2675;BME280;1347;42.122;24.746;2023-08-06T01:12:45;98072.81;;;24.67;100.00
2675;BME280;1347;42.122;24.746;2023-08-06T01:15:18;98080.22;;;24.70;100.00
2675;BME280;1347;42.122;24.746;2023-08-06T01:17:46;98078.69;;;24.69;100.00
2675;BME280;1347;42.122;24.746;2023-08-06T01:20:13;98076.09;;;24.66;100.00
2675;BME280;1347;42.122;24.746;2023-08-06T01:22:41;98067.66;;;24.60;100.00
2675;BME280;1347;42.122;24.746;2023-08-06T01:25:08;98072.16;;;24.46;100.00
2675;BME280;1347;42.122;24.746;2023-08-06T01:27:41;98089.47;;;24.45;100.00
2675;BME280;1347;42.122;24.746;2023-08-06T01:30:12;98093.59;;;24.55;100.00
2675;BME280;1347;42.122;24.746;2023-08-06T01:32:44;98089.25;;;24.54;100.00
2675;BME280;1347;42.122;24.746;2023-08-06T01:35:12;98072.44;;;24.54;100.00
2675;BME280;1347;42.122;24.746;2023-08-06T01:37:42;98073.97;;;24.49;100.00
2675;BME280;1347;42.122;24.746;2023-08-06T01:40:10;98067.63;;;24.54;100.00
2675;BME280;1347;42.122;24.746;2023-08-06T01:42:37;98057.72;;;24.59;100.00
2675;BME280;1347;42.122;24.746;2023-08-06T01:45:05;98047.03;;;24.57;100.00
2675;BME280;1347;42.122;24.746;2023-08-06T01:47:32;98044.44;;;24.54;100.00
2675;BME280;1347;42.122;24.746;2023-08-06T01:49:59;98039.31;;;24.47;100.00
2675;BME280;1347;42.122;24.746;2023-08-06T01:52:27;98042.09;;;24.47;100.00
2675;BME280;1347;42.122;24.746;2023-08-06T01:54:55;98049.22;;;24.42;100.00
2675;BME280;1347;42.122;24.746;2023-08-06T01:57:22;98063.75;;;24.46;100.00
2675;BME280;1347;42.122;24.746;2023-08-06T01:59:49;98054.84;;;24.48;100.00
2675;BME280;1347;42.122;24.746;2023-08-06T02:02:16;98071.94;;;24.50;100.00
2675;BME280;1347;42.122;24.746;2023-08-06T02:04:43;98087.69;;;24.42;100.00
2675;BME280;1347;42.122;24.746;2023-08-06T02:07:09;98087.69;;;24.47;100.00
2675;BME280;1347;42.122;24.746;2023-08-06T02:09:36;98068.38;;;24.49;100.00
2675;BME280;1347;42.122;24.746;2023-08-06T02:12:06;98049.75;;;24.46;100.00
2675;BME280;1347;42.122;24.746;2023-08-06T02:14:33;98058.13;;;24.41;100.00
2675;BME280;1347;42.122;24.746;2023-08-06T02:17:00;98068.28;;;24.38;100.00
2675;BME280;1347;42.122;24.746;2023-08-06T02:19:27;98061.22;;;24.48;100.00
2675;BME280;1347;42.122;24.746;2023-08-06T02:21:54;98061.91;;;24.38;100.00
2675;BME280;1347;42.122;24.746;2023-08-06T02:24:21;98063.97;;;24.43;100.00
2675;BME280;1347;42.122;24.746;2023-08-06T02:26:48;98056.38;;;24.49;100.00
2675;BME280;1347;42.122;24.746;2023-08-06T02:29:18;98058.91;;;24.47;100.00
2675;BME280;1347;42.122;24.746;2023-08-06T02:31:44;98047.13;;;24.37;100.00
2675;BME280;1347;42.122;24.746;2023-08-06T02:34:11;98050.13;;;24.28;100.00
2675;BME280;1347;42.122;24.746;2023-08-06T02:36:38;98057.16;;;24.18;100.00
2675;BME280;1347;42.122;24.746;2023-08-06T02:39:05;98049.78;;;24.20;100.00
2675;BME280;1347;42.122;24.746;2023-08-06T02:41:32;98056.59;;;24.14;100.00
2675;BME280;1347;42.122;24.746;2023-08-06T02:43:59;98042.56;;;24.08;100.00
2675;BME280;1347;42.122;24.746;2023-08-06T02:46:27;98044.31;;;24.06;100.00
2675;BME280;1347;42.122;24.746;2023-08-06T02:48:54;98036.41;;;24.04;100.00
2675;BME280;1347;42.122;24.746;2023-08-06T02:51:21;98050.09;;;23.97;100.00
2675;BME280;1347;42.122;24.746;2023-08-06T02:53:48;98056.75;;;23.99;100.00
2675;BME280;1347;42.122;24.746;2023-08-06T02:56:15;98048.06;;;23.97;100.00
2675;BME280;1347;42.122;24.746;2023-08-06T02:58:42;98045.00;;;23.95;100.00
2675;BME280;1347;42.122;24.746;2023-08-06T03:01:08;98035.56;;;23.93;100.00
2675;BME280;1347;42.122;24.746;2023-08-06T03:03:37;98036.06;;;23.91;100.00
2675;BME280;1347;42.122;24.746;2023-08-06T03:06:03;98042.69;;;23.94;100.00
2675;BME280;1347;42.122;24.746;2023-08-06T03:08:30;98035.88;;;24.00;100.00
2675;BME280;1347;42.122;24.746;2023-08-06T03:10:57;98043.78;;;24.02;100.00
2675;BME280;1347;42.122;24.746;2023-08-06T03:13:24;98041.78;;;24.08;100.00
2675;BME280;1347;42.122;24.746;2023-08-06T03:15:55;98043.88;;;24.13;100.00
2675;BME280;1347;42.122;24.746;2023-08-06T03:18:22;98042.28;;;24.06;100.00
2675;BME280;1347;42.122;24.746;2023-08-06T03:20:50;98036.19;;;24.08;100.00
2675;BME280;1347;42.122;24.746;2023-08-06T03:23:17;98041.84;;;24.13;100.00
2675;BME280;1347;42.122;24.746;2023-08-06T03:25:44;98042.25;;;24.01;100.00
2675;BME280;1347;42.122;24.746;2023-08-06T03:28:11;98053.28;;;23.84;100.00
2675;BME280;1347;42.122;24.746;2023-08-06T03:30:38;98054.03;;;23.79;100.00
2675;BME280;1347;42.122;24.746;2023-08-06T03:33:05;98056.81;;;23.79;100.00
2675;BME280;1347;42.122;24.746;2023-08-06T03:35:32;98054.78;;;23.79;100.00
2675;BME280;1347;42.122;24.746;2023-08-06T03:38:00;98055.22;;;23.72;100.00
2675;BME280;1347;42.122;24.746;2023-08-06T03:40:27;98049.56;;;23.67;100.00
2675;BME280;1347;42.122;24.746;2023-08-06T03:42:54;98052.38;;;23.67;100.00
2675;BME280;1347;42.122;24.746;2023-08-06T03:45:21;98053.91;;;23.68;100.00
2675;BME280;1347;42.122;24.746;2023-08-06T03:47:48;98047.59;;;23.73;100.00
2675;BME280;1347;42.122;24.746;2023-08-06T03:50:15;98047.38;;;23.76;100.00
2675;BME280;1347;42.122;24.746;2023-08-06T03:52:42;98056.25;;;23.75;100.00
2675;BME280;1347;42.122;24.746;2023-08-06T03:55:10;98054.50;;;23.77;100.00
2675;BME280;1347;42.122;24.746;2023-08-06T03:57:37;98050.16;;;23.76;100.00
2675;BME280;1347;42.122;24.746;2023-08-06T04:00:05;98062.25;;;23.88;100.00
2675;BME280;1347;42.122;24.746;2023-08-06T04:02:32;98066.50;;;23.83;100.00
2675;BME280;1347;42.122;24.746;2023-08-06T04:05:00;98060.66;;;23.81;100.00
2675;BME280;1347;42.122;24.746;2023-08-06T04:07:27;98069.88;;;23.88;100.00
2675;BME280;1347;42.122;24.746;2023-08-06T04:09:55;98059.28;;;23.71;100.00
2675;BME280;1347;42.122;24.746;2023-08-06T04:12:23;98058.41;;;23.85;100.00
2675;BME280;1347;42.122;24.746;2023-08-06T04:14:51;98062.72;;;23.87;100.00
2675;BME280;1347;42.122;24.746;2023-08-06T04:17:18;98062.94;;;23.83;100.00
2675;BME280;1347;42.122;24.746;2023-08-06T04:19:47;98072.47;;;23.91;100.00
2675;BME280;1347;42.122;24.746;2023-08-06T04:22:14;98066.13;;;23.96;100.00
2675;BME280;1347;42.122;24.746;2023-08-06T04:24:41;98072.22;;;23.95;100.00
2675;BME280;1347;42.122;24.746;2023-08-06T04:27:08;98081.16;;;23.99;100.00
2675;BME280;1347;42.122;24.746;2023-08-06T04:29:37;98085.94;;;23.93;100.00
2675;BME280;1347;42.122;24.746;2023-08-06T04:32:06;98084.41;;;23.92;100.00
2675;BME280;1347;42.122;24.746;2023-08-06T04:34:34;98080.91;;;23.97;100.00
2675;BME280;1347;42.122;24.746;2023-08-06T04:37:01;98082.47;;;24.03;100.00
2675;BME280;1347;42.122;24.746;2023-08-06T04:39:28;98076.09;;;24.03;100.00
2675;BME280;1347;42.122;24.746;2023-08-06T04:41:56;98069.06;;;24.13;100.00
2675;BME280;1347;42.122;24.746;2023-08-06T04:44:23;98064.19;;;24.08;100.00
2675;BME280;1347;42.122;24.746;2023-08-06T04:46:51;98066.19;;;24.02;100.00
2675;BME280;1347;42.122;24.746;2023-08-06T04:49:21;98069.53;;;24.06;100.00
2675;BME280;1347;42.122;24.746;2023-08-06T04:51:48;98073.41;;;24.14;100.00
2675;BME280;1347;42.122;24.746;2023-08-06T04:54:15;98079.56;;;24.18;100.00
2675;BME280;1347;42.122;24.746;2023-08-06T04:56:41;98070.84;;;24.10;100.00
2675;BME280;1347;42.122;24.746;2023-08-06T04:59:08;98063.59;;;24.24;100.00
2675;BME280;1347;42.122;24.746;2023-08-06T05:01:35;98073.81;;;24.33;100.00
2675;BME280;1347;42.122;24.746;2023-08-06T05:04:03;98089.16;;;24.37;100.00
2675;BME280;1347;42.122;24.746;2023-08-06T05:06:30;98084.03;;;24.36;100.00
2675;BME280;1347;42.122;24.746;2023-08-06T05:08:57;98079.22;;;24.36;100.00
2675;BME280;1347;42.122;24.746;2023-08-06T05:11:24;98074.75;;;24.50;100.00
2675;BME280;1347;42.122;24.746;2023-08-06T05:13:51;98071.25;;;24.61;100.00
2675;BME280;1347;42.122;24.746;2023-08-06T05:16:18;98078.38;;;24.62;100.00
2675;BME280;1347;42.122;24.746;2023-08-06T05:18:45;98075.94;;;24.43;100.00
2675;BME280;1347;42.122;24.746;2023-08-06T05:21:13;98085.44;;;24.20;100.00
2675;BME280;1347;42.122;24.746;2023-08-06T05:23:41;98094.72;;;24.06;100.00
2675;BME280;1347;42.122;24.746;2023-08-06T05:26:08;98096.34;;;24.18;100.00
2675;BME280;1347;42.122;24.746;2023-08-06T05:28:35;98088.00;;;24.24;100.00
2675;BME280;1347;42.122;24.746;2023-08-06T05:31:05;98074.88;;;24.35;100.00
2675;BME280;1347;42.122;24.746;2023-08-06T05:33:32;98070.38;;;24.17;100.00
2675;BME280;1347;42.122;24.746;2023-08-06T05:35:59;98068.16;;;24.22;100.00
2675;BME280;1347;42.122;24.746;2023-08-06T05:38:27;98078.06;;;24.23;100.00
2675;BME280;1347;42.122;24.746;2023-08-06T05:40:54;98070.59;;;24.14;100.00
2675;BME280;1347;42.122;24.746;2023-08-06T05:43:21;98068.28;;;24.12;100.00
2675;BME280;1347;42.122;24.746;2023-08-06T05:45:49;98072.97;;;23.95;100.00
2675;BME280;1347;42.122;24.746;2023-08-06T05:48:17;98062.31;;;23.68;100.00
2675;BME280;1347;42.122;24.746;2023-08-06T05:50:43;98059.19;;;23.60;100.00
2675;BME280;1347;42.122;24.746;2023-08-06T05:53:10;98054.69;;;23.48;100.00
2675;BME280;1347;42.122;24.746;2023-08-06T05:55:39;98057.94;;;23.41;100.00
2675;BME280;1347;42.122;24.746;2023-08-06T05:58:05;98056.66;;;23.42;100.00
2675;BME280;1347;42.122;24.746;2023-08-06T06:00:32;98054.78;;;23.33;100.00
2675;BME280;1347;42.122;24.746;2023-08-06T06:03:00;98058.44;;;23.19;100.00
2675;BME280;1347;42.122;24.746;2023-08-06T06:05:27;98058.63;;;23.16;100.00
2675;BME280;1347;42.122;24.746;2023-08-06T06:07:54;98050.31;;;23.21;100.00
2675;BME280;1347;42.122;24.746;2023-08-06T06:10:21;98052.63;;;23.23;100.00
2675;BME280;1347;42.122;24.746;2023-08-06T06:12:49;98045.44;;;23.16;100.00
2675;BME280;1347;42.122;24.746;2023-08-06T06:15:16;98041.88;;;23.16;100.00
2675;BME280;1347;42.122;24.746;2023-08-06T06:17:43;98044.03;;;23.06;100.00
2675;BME280;1347;42.122;24.746;2023-08-06T06:20:10;98055.41;;;23.02;100.00
2675;BME280;1347;42.122;24.746;2023-08-06T06:22:37;98049.00;;;22.96;100.00
2675;BME280;1347;42.122;24.746;2023-08-06T06:25:05;98044.66;;;22.95;100.00
2675;BME280;1347;42.122;24.746;2023-08-06T06:27:32;98042.44;;;22.99;100.00
2675;BME280;1347;42.122;24.746;2023-08-06T06:30:00;98043.91;;;22.95;100.00
2675;BME280;1347;42.122;24.746;2023-08-06T06:32:27;98056.88;;;22.78;100.00
2675;BME280;1347;42.122;24.746;2023-08-06T06:34:54;98062.00;;;22.79;100.00
2675;BME280;1347;42.122;24.746;2023-08-06T06:37:21;98076.03;;;22.70;100.00
2675;BME280;1347;42.122;24.746;2023-08-06T06:39:47;98070.75;;;22.72;100.00
2675;BME280;1347;42.122;24.746;2023-08-06T06:42:14;98061.47;;;22.81;100.00
2675;BME280;1347;42.122;24.746;2023-08-06T06:44:42;98068.69;;;22.87;100.00
2675;BME280;1347;42.122;24.746;2023-08-06T06:47:10;98054.78;;;22.93;100.00
2675;BME280;1347;42.122;24.746;2023-08-06T06:49:37;98047.03;;;23.02;100.00
2675;BME280;1347;42.122;24.746;2023-08-06T06:52:04;98055.50;;;23.08;100.00
2675;BME280;1347;42.122;24.746;2023-08-06T06:54:31;98056.41;;;23.20;100.00
2675;BME280;1347;42.122;24.746;2023-08-06T06:56:58;98057.31;;;23.11;100.00
2675;BME280;1347;42.122;24.746;2023-08-06T06:59:25;98062.22;;;23.16;100.00
2675;BME280;1347;42.122;24.746;2023-08-06T07:01:52;98063.47;;;23.15;100.00
2675;BME280;1347;42.122;24.746;2023-08-06T07:04:20;98060.81;;;23.26;100.00
2675;BME280;1347;42.122;24.746;2023-08-06T07:06:47;98060.97;;;23.43;100.00
2675;BME280;1347;42.122;24.746;2023-08-06T07:09:14;98072.72;;;23.67;100.00
2675;BME280;1347;42.122;24.746;2023-08-06T07:11:41;98079.63;;;23.98;100.00
2675;BME280;1347;42.122;24.746;2023-08-06T07:14:09;98082.34;;;24.18;100.00
2675;BME280;1347;42.122;24.746;2023-08-06T07:16:36;98076.00;;;24.49;100.00
2675;BME280;1347;42.122;24.746;2023-08-06T07:19:03;98087.16;;;24.80;100.00
2675;BME280;1347;42.122;24.746;2023-08-06T07:21:32;98089.47;;;24.82;100.00
2675;BME280;1347;42.122;24.746;2023-08-06T07:23:59;98093.94;;;25.05;100.00
2675;BME280;1347;42.122;24.746;2023-08-06T07:26:26;98099.97;;;25.41;100.00
2675;BME280;1347;42.122;24.746;2023-08-06T07:28:53;98114.31;;;25.54;100.00
2675;BME280;1347;42.122;24.746;2023-08-06T07:31:19;98129.31;;;25.45;100.00
2675;BME280;1347;42.122;24.746;2023-08-06T07:33:46;98116.09;;;25.57;100.00
2675;BME280;1347;42.122;24.746;2023-08-06T07:36:14;98107.75;;;25.74;100.00
2675;BME280;1347;42.122;24.746;2023-08-06T07:38:43;98097.63;;;26.15;100.00
2675;BME280;1347;42.122;24.746;2023-08-06T07:41:09;98095.31;;;26.75;100.00
2675;BME280;1347;42.122;24.746;2023-08-06T07:43:36;98100.31;;;27.21;100.00
2675;BME280;1347;42.122;24.746;2023-08-06T07:46:03;98108.88;;;27.51;100.00
2675;BME280;1347;42.122;24.746;2023-08-06T07:48:31;98104.16;;;27.18;96.34
2675;BME280;1347;42.122;24.746;2023-08-06T07:50:58;98107.56;;;26.72;98.10
2675;BME280;1347;42.122;24.746;2023-08-06T07:53:25;98098.91;;;26.64;97.23
2675;BME280;1347;42.122;24.746;2023-08-06T07:55:56;98102.97;;;26.47;98.89
2675;BME280;1347;42.122;24.746;2023-08-06T07:58:24;98116.22;;;25.90;100.00
2675;BME280;1347;42.122;24.746;2023-08-06T08:00:51;98112.38;;;25.82;99.89
2675;BME280;1347;42.122;24.746;2023-08-06T08:03:18;98120.94;;;25.56;100.00
2675;BME280;1347;42.122;24.746;2023-08-06T08:05:45;98130.19;;;25.68;100.00
2675;BME280;1347;42.122;24.746;2023-08-06T08:08:12;98125.75;;;25.50;100.00
2675;BME280;1347;42.122;24.746;2023-08-06T08:10:39;98122.63;;;25.37;100.00
2675;BME280;1347;42.122;24.746;2023-08-06T08:13:08;98117.78;;;25.32;100.00
2675;BME280;1347;42.122;24.746;2023-08-06T08:15:35;98130.00;;;25.29;100.00
2675;BME280;1347;42.122;24.746;2023-08-06T08:18:02;98128.91;;;25.10;100.00
2675;BME280;1347;42.122;24.746;2023-08-06T08:20:29;98127.09;;;25.07;100.00
2675;BME280;1347;42.122;24.746;2023-08-06T08:22:59;98121.22;;;25.05;100.00
2675;BME280;1347;42.122;24.746;2023-08-06T08:25:27;98127.78;;;24.96;100.00
2675;BME280;1347;42.122;24.746;2023-08-06T08:27:54;98123.97;;;24.93;100.00
2675;BME280;1347;42.122;24.746;2023-08-06T08:30:22;98132.03;;;24.86;100.00
2675;BME280;1347;42.122;24.746;2023-08-06T08:32:50;98122.81;;;24.80;100.00
2675;BME280;1347;42.122;24.746;2023-08-06T08:35:17;98117.44;;;24.76;100.00
2675;BME280;1347;42.122;24.746;2023-08-06T08:37:44;98109.28;;;24.73;100.00
2675;BME280;1347;42.122;24.746;2023-08-06T08:40:11;98105.25;;;24.79;100.00
2675;BME280;1347;42.122;24.746;2023-08-06T08:42:38;98108.06;;;24.85;100.00
2675;BME280;1347;42.122;24.746;2023-08-06T08:45:10;98100.69;;;24.87;100.00
2675;BME280;1347;42.122;24.746;2023-08-06T08:47:40;98109.88;;;24.88;100.00
2675;BME280;1347;42.122;24.746;2023-08-06T08:50:08;98110.06;;;24.79;100.00
2675;BME280;1347;42.122;24.746;2023-08-06T08:52:36;98104.50;;;24.84;100.00
2675;BME280;1347;42.122;24.746;2023-08-06T08:55:05;98109.81;;;24.77;100.00
2675;BME280;1347;42.122;24.746;2023-08-06T08:57:33;98118.78;;;24.86;100.00
2675;BME280;1347;42.122;24.746;2023-08-06T09:00:00;98113.31;;;25.03;100.00
2675;BME280;1347;42.122;24.746;2023-08-06T09:02:28;98103.72;;;25.26;100.00
2675;BME280;1347;42.122;24.746;2023-08-06T09:04:58;98099.31;;;25.68;100.00
2675;BME280;1347;42.122;24.746;2023-08-06T09:07:29;98103.22;;;26.26;100.00
2675;BME280;1347;42.122;24.746;2023-08-06T09:10:01;98086.59;;;27.59;100.00
2675;BME280;1347;42.122;24.746;2023-08-06T09:12:29;98097.28;;;28.72;98.22
2675;BME280;1347;42.122;24.746;2023-08-06T09:14:56;98093.75;;;29.20;88.33
2675;BME280;1347;42.122;24.746;2023-08-06T09:17:23;98084.34;;;28.88;86.86
2675;BME280;1347;42.122;24.746;2023-08-06T09:19:50;98082.34;;;29.69;88.82
2675;BME280;1347;42.122;24.746;2023-08-06T09:22:19;98084.44;;;30.19;84.19
2675;BME280;1347;42.122;24.746;2023-08-06T09:24:46;98080.28;;;31.37;91.22
2675;BME280;1347;42.122;24.746;2023-08-06T09:27:14;98079.69;;;32.53;77.70
2675;BME280;1347;42.122;24.746;2023-08-06T09:29:42;98065.34;;;33.44;71.40
2675;BME280;1347;42.122;24.746;2023-08-06T09:32:10;98070.72;;;33.63;65.94
2675;BME280;1347;42.122;24.746;2023-08-06T09:34:39;98071.75;;;33.81;63.24
2675;BME280;1347;42.122;24.746;2023-08-06T09:37:07;98077.50;;;34.04;62.36
2675;BME280;1347;42.122;24.746;2023-08-06T09:39:38;98077.56;;;34.95;57.26
2675;BME280;1347;42.122;24.746;2023-08-06T09:42:05;98075.31;;;34.78;56.16
2675;BME280;1347;42.122;24.746;2023-08-06T09:44:33;98079.44;;;34.31;54.92
2675;BME280;1347;42.122;24.746;2023-08-06T09:47:01;98076.81;;;33.31;55.46
2675;BME280;1347;42.122;24.746;2023-08-06T09:49:40;98069.69;;;32.81;58.21
2675;BME280;1347;42.122;24.746;2023-08-06T09:52:10;98068.84;;;33.73;56.73
2675;BME280;1347;42.122;24.746;2023-08-06T09:54:39;98059.91;;;34.89;53.31
2675;BME280;1347;42.122;24.746;2023-08-06T09:57:06;98075.44;;;36.63;50.58
2675;BME280;1347;42.122;24.746;2023-08-06T09:59:33;98075.16;;;37.80;45.49
2675;BME280;1347;42.122;24.746;2023-08-06T10:02:00;98082.00;;;38.84;41.98
2675;BME280;1347;42.122;24.746;2023-08-06T10:04:29;98074.97;;;39.62;40.43
2675;BME280;1347;42.122;24.746;2023-08-06T10:06:56;98066.88;;;40.19;37.34
2675;BME280;1347;42.122;24.746;2023-08-06T10:09:24;98064.56;;;39.86;37.61
2675;BME280;1347;42.122;24.746;2023-08-06T10:11:55;98059.31;;;39.44;37.15
2675;BME280;1347;42.122;24.746;2023-08-06T10:14:26;98046.25;;;39.82;36.57
2675;BME280;1347;42.122;24.746;2023-08-06T10:16:57;98052.31;;;40.67;35.72
2675;BME280;1347;42.122;24.746;2023-08-06T10:19:25;98042.84;;;39.45;36.37
2675;BME280;1347;42.122;24.746;2023-08-06T10:22:08;98036.47;;;40.25;36.12
2675;BME280;1347;42.122;24.746;2023-08-06T10:24:46;98034.59;;;37.91;36.75
2675;BME280;1347;42.122;24.746;2023-08-06T10:27:19;98036.75;;;38.83;36.61
2675;BME280;1347;42.122;24.746;2023-08-06T10:29:47;98028.59;;;38.23;36.99
2675;BME280;1347;42.122;24.746;2023-08-06T10:32:15;98036.22;;;37.84;37.96
2675;BME280;1347;42.122;24.746;2023-08-06T10:34:56;98024.88;;;37.59;36.82
2675;BME280;1347;42.122;24.746;2023-08-06T10:37:24;98037.03;;;36.81;38.61
2675;BME280;1347;42.122;24.746;2023-08-06T10:39:51;98036.25;;;38.21;36.93
2675;BME280;1347;42.122;24.746;2023-08-06T10:42:32;98034.88;;;38.12;37.42
2675;BME280;1347;42.122;24.746;2023-08-06T10:45:12;98047.75;;;37.59;37.54
2675;BME280;1347;42.122;24.746;2023-08-06T10:47:39;98032.88;;;38.51;35.32
2675;BME280;1347;42.122;24.746;2023-08-06T10:50:07;98042.25;;;39.36;34.80
2675;BME280;1347;42.122;24.746;2023-08-06T10:52:35;98050.94;;;40.68;33.97
2675;BME280;1347;42.122;24.746;2023-08-06T10:55:03;98057.47;;;39.29;34.35
2675;BME280;1347;42.122;24.746;2023-08-06T10:57:32;98059.78;;;38.29;36.40
2675;BME280;1347;42.122;24.746;2023-08-06T10:59:59;98064.94;;;37.08;36.29
2675;BME280;1347;42.122;24.746;2023-08-06T11:02:26;98051.41;;;37.08;37.12
2675;BME280;1347;42.122;24.746;2023-08-06T11:04:53;98054.25;;;35.44;38.42
2675;BME280;1347;42.122;24.746;2023-08-06T11:07:20;98038.25;;;35.56;38.19
2675;BME280;1347;42.122;24.746;2023-08-06T11:09:50;98047.03;;;36.65;37.53
2675;BME280;1347;42.122;24.746;2023-08-06T11:12:18;98043.41;;;36.90;36.73
2675;BME280;1347;42.122;24.746;2023-08-06T11:14:51;98053.31;;;37.75;36.74
2675;BME280;1347;42.122;24.746;2023-08-06T11:17:18;98051.84;;;38.93;35.42
2675;BME280;1347;42.122;24.746;2023-08-06T11:19:45;98059.13;;;40.21;33.29
2675;BME280;1347;42.122;24.746;2023-08-06T11:22:12;98065.72;;;39.83;33.33
2675;BME280;1347;42.122;24.746;2023-08-06T11:24:40;98055.03;;;39.74;32.98
2675;BME280;1347;42.122;24.746;2023-08-06T11:27:11;98069.25;;;40.32;32.84
2675;BME280;1347;42.122;24.746;2023-08-06T11:29:40;98065.50;;;40.29;32.95
2675;BME280;1347;42.122;24.746;2023-08-06T11:32:09;98065.34;;;40.27;33.22
2675;BME280;1347;42.122;24.746;2023-08-06T11:34:36;98057.03;;;39.33;33.82
2675;BME280;1347;42.122;24.746;2023-08-06T11:37:03;98054.59;;;37.47;35.58
2675;BME280;1347;42.122;24.746;2023-08-06T11:39:32;98055.19;;;36.94;36.16
2675;BME280;1347;42.122;24.746;2023-08-06T11:41:59;98048.69;;;35.94;38.18
2675;BME280;1347;42.122;24.746;2023-08-06T11:44:30;98056.06;;;35.64;38.30
2675;BME280;1347;42.122;24.746;2023-08-06T11:46:59;98055.75;;;34.67;39.75
2675;BME280;1347;42.122;24.746;2023-08-06T11:49:42;98041.53;;;34.75;38.99
2675;BME280;1347;42.122;24.746;2023-08-06T11:52:14;98047.97;;;34.67;40.12
2675;BME280;1347;42.122;24.746;2023-08-06T11:54:41;98044.50;;;34.23;40.70
2675;BME280;1347;42.122;24.746;2023-08-06T11:57:08;98047.13;;;33.91;41.79
2675;BME280;1347;42.122;24.746;2023-08-06T11:59:37;98040.50;;;33.88;41.64
2675;BME280;1347;42.122;24.746;2023-08-06T12:02:04;98039.56;;;33.93;41.24
2675;BME280;1347;42.122;24.746;2023-08-06T12:04:32;98046.75;;;33.87;42.39
2675;BME280;1347;42.122;24.746;2023-08-06T12:07:18;98044.47;;;34.01;40.90
2675;BME280;1347;42.122;24.746;2023-08-06T12:09:45;98055.38;;;34.55;40.55
2675;BME280;1347;42.122;24.746;2023-08-06T12:12:12;98059.53;;;34.69;39.81
2675;BME280;1347;42.122;24.746;2023-08-06T12:14:39;98055.56;;;34.42;39.95
2675;BME280;1347;42.122;24.746;2023-08-06T12:17:06;98062.41;;;34.39;40.83
2675;BME280;1347;42.122;24.746;2023-08-06T12:19:33;98061.94;;;34.05;40.83
2675;BME280;1347;42.122;24.746;2023-08-06T12:22:00;98061.88;;;33.74;41.20
2675;BME280;1347;42.122;24.746;2023-08-06T12:24:29;98057.56;;;34.04;40.80
2675;BME280;1347;42.122;24.746;2023-08-06T12:26:57;98047.13;;;33.83;40.65
2675;BME280;1347;42.122;24.746;2023-08-06T12:29:25;98048.09;;;33.93;40.18
2675;BME280;1347;42.122;24.746;2023-08-06T12:31:52;98054.81;;;33.68;42.11
2675;BME280;1347;42.122;24.746;2023-08-06T12:34:19;98044.56;;;33.57;41.58
2675;BME280;1347;42.122;24.746;2023-08-06T12:36:45;98053.66;;;33.63;40.83
2675;BME280;1347;42.122;24.746;2023-08-06T12:39:12;98052.97;;;33.34;42.25
2675;BME280;1347;42.122;24.746;2023-08-06T12:41:41;98043.22;;;33.14;41.10
2675;BME280;1347;42.122;24.746;2023-08-06T12:44:09;98052.03;;;33.03;42.37
2675;BME280;1347;42.122;24.746;2023-08-06T12:46:36;98042.63;;;32.80;42.39
2675;BME280;1347;42.122;24.746;2023-08-06T12:49:02;98039.97;;;33.10;42.50
2675;BME280;1347;42.122;24.746;2023-08-06T12:51:30;98045.63;;;33.10;41.63
2675;BME280;1347;42.122;24.746;2023-08-06T12:53:59;98049.69;;;32.86;41.80
2675;BME280;1347;42.122;24.746;2023-08-06T12:56:26;98052.63;;;32.73;42.12
2675;BME280;1347;42.122;24.746;2023-08-06T12:58:54;98056.00;;;32.72;42.65
2675;BME280;1347;42.122;24.746;2023-08-06T13:01:21;98059.16;;;32.68;41.71
2675;BME280;1347;42.122;24.746;2023-08-06T13:03:48;98052.28;;;32.56;41.43
2675;BME280;1347;42.122;24.746;2023-08-06T13:06:15;98066.75;;;32.45;42.40